sensor_id;sensor_type;location;lat;lon;timestamp;P1;durP1;ratioP1;P2;durP2;ratioP2
74799;SDS011;63326;45.088;7.658;2024-01-27T00:00:28;26.55;;;11.52;;
74799;SDS011;63326;45.088;7.658;2024-01-27T00:02:54;44.67;;;16.60;;
74799;SDS011;63326;45.088;7.658;2024-01-27T00:05:21;32.20;;;19.35;;
74799;SDS011;63326;45.088;7.658;2024-01-27T00:07:48;44.40;;;17.95;;
74799;SDS011;63326;45.088;7.658;2024-01-27T00:10:15;35.15;;;14.10;;
74799;SDS011;63326;45.088;7.658;2024-01-27T00:12:42;23.15;;;12.90;;
74799;SDS011;63326;45.088;7.658;2024-01-27T00:15:09;38.83;;;16.92;;
74799;SDS011;63326;45.088;7.658;2024-01-27T00:17:37;40.47;;;20.42;;
74799;SDS011;63326;45.088;7.658;2024-01-27T00:20:03;37.60;;;19.05;;
74799;SDS011;63326;45.088;7.658;2024-01-27T00:22:31;32.22;;;14.70;;
74799;SDS011;63326;45.088;7.658;2024-01-27T00:24:58;33.95;;;21.50;;
74799;SDS011;63326;45.088;7.658;2024-01-27T00:27:25;26.45;;;17.92;;
74799;SDS011;63326;45.088;7.658;2024-01-27T00:29:52;40.00;;;18.88;;
74799;SDS011;63326;45.088;7.658;2024-01-27T00:32:19;46.33;;;21.98;;
74799;SDS011;63326;45.088;7.658;2024-01-27T00:34:46;32.58;;;14.60;;
74799;SDS011;63326;45.088;7.658;2024-01-27T00:37:13;24.10;;;12.90;;
74799;SDS011;63326;45.088;7.658;2024-01-27T00:39:40;35.88;;;14.73;;
74799;SDS011;63326;45.088;7.658;2024-01-27T00:42:07;38.38;;;20.13;;
74799;SDS011;63326;45.088;7.658;2024-01-27T00:44:35;31.25;;;17.77;;
74799;SDS011;63326;45.088;7.658;2024-01-27T00:47:02;30.75;;;11.70;;
74799;SDS011;63326;45.088;7.658;2024-01-27T00:49:30;21.30;;;10.85;;
74799;SDS011;63326;45.088;7.658;2024-01-27T00:51:59;29.83;;;15.05;;
74799;SDS011;63326;45.088;7.658;2024-01-27T00:54:25;37.28;;;14.60;;
74799;SDS011;63326;45.088;7.658;2024-01-27T00:56:53;22.95;;;9.25;;
74799;SDS011;63326;45.088;7.658;2024-01-27T00:59:20;26.40;;;10.50;;
74799;SDS011;63326;45.088;7.658;2024-01-27T01:01:47;26.52;;;13.82;;
74799;SDS011;63326;45.088;7.658;2024-01-27T01:04:14;33.88;;;15.57;;
74799;SDS011;63326;45.088;7.658;2024-01-27T01:09:10;26.17;;;15.90;;
74799;SDS011;63326;45.088;7.658;2024-01-27T01:11:38;25.42;;;10.88;;
74799;SDS011;63326;45.088;7.658;2024-01-27T01:14:06;37.10;;;14.80;;
74799;SDS011;63326;45.088;7.658;2024-01-27T01:16:32;24.60;;;10.48;;
74799;SDS011;63326;45.088;7.658;2024-01-27T01:19:01;25.08;;;12.25;;
74799;SDS011;63326;45.088;7.658;2024-01-27T01:21:28;37.05;;;16.65;;
74799;SDS011;63326;45.088;7.658;2024-01-27T01:24:01;33.60;;;19.17;;
74799;SDS011;63326;45.088;7.658;2024-01-27T01:26:28;26.40;;;15.27;;
74799;SDS011;63326;45.088;7.658;2024-01-27T01:28:55;30.60;;;16.25;;
74799;SDS011;63326;45.088;7.658;2024-01-27T01:31:22;27.50;;;11.15;;
74799;SDS011;63326;45.088;7.658;2024-01-27T01:33:49;23.52;;;10.70;;
74799;SDS011;63326;45.088;7.658;2024-01-27T01:36:17;21.90;;;9.15;;
74799;SDS011;63326;45.088;7.658;2024-01-27T01:38:44;26.98;;;11.07;;
74799;SDS011;63326;45.088;7.658;2024-01-27T01:41:14;36.63;;;16.80;;
74799;SDS011;63326;45.088;7.658;2024-01-27T01:43:43;34.45;;;16.98;;
74799;SDS011;63326;45.088;7.658;2024-01-27T01:46:10;35.25;;;14.32;;
74799;SDS011;63326;45.088;7.658;2024-01-27T01:48:40;29.45;;;12.98;;
74799;SDS011;63326;45.088;7.658;2024-01-27T01:51:08;34.20;;;11.27;;
74799;SDS011;63326;45.088;7.658;2024-01-27T01:53:35;34.80;;;16.95;;
74799;SDS011;63326;45.088;7.658;2024-01-27T01:56:05;36.03;;;13.70;;
74799;SDS011;63326;45.088;7.658;2024-01-27T01:58:35;36.67;;;14.05;;
74799;SDS011;63326;45.088;7.658;2024-01-27T02:01:01;22.77;;;11.80;;
74799;SDS011;63326;45.088;7.658;2024-01-27T02:03:29;27.55;;;11.02;;
74799;SDS011;63326;45.088;7.658;2024-01-27T02:05:58;23.95;;;8.50;;
74799;SDS011;63326;45.088;7.658;2024-01-27T02:08:25;23.73;;;11.95;;
74799;SDS011;63326;45.088;7.658;2024-01-27T02:10:51;18.40;;;9.95;;
74799;SDS011;63326;45.088;7.658;2024-01-27T02:13:20;34.95;;;19.50;;
74799;SDS011;63326;45.088;7.658;2024-01-27T02:15:50;24.52;;;13.55;;
74799;SDS011;63326;45.088;7.658;2024-01-27T02:18:17;38.60;;;15.15;;
74799;SDS011;63326;45.088;7.658;2024-01-27T02:20:45;27.17;;;15.48;;
74799;SDS011;63326;45.088;7.658;2024-01-27T02:23:12;26.77;;;9.02;;
74799;SDS011;63326;45.088;7.658;2024-01-27T02:25:40;31.10;;;10.80;;
74799;SDS011;63326;45.088;7.658;2024-01-27T02:28:08;25.50;;;11.25;;
74799;SDS011;63326;45.088;7.658;2024-01-27T02:30:35;27.23;;;13.00;;
74799;SDS011;63326;45.088;7.658;2024-01-27T02:33:04;38.45;;;19.40;;
74799;SDS011;63326;45.088;7.658;2024-01-27T02:35:34;26.50;;;14.25;;
74799;SDS011;63326;45.088;7.658;2024-01-27T02:38:03;22.55;;;13.07;;
74799;SDS011;63326;45.088;7.658;2024-01-27T02:40:31;27.63;;;10.60;;
74799;SDS011;63326;45.088;7.658;2024-01-27T02:42:58;30.67;;;16.58;;
74799;SDS011;63326;45.088;7.658;2024-01-27T02:45:24;30.65;;;12.82;;
74799;SDS011;63326;45.088;7.658;2024-01-27T02:47:55;24.35;;;10.20;;
74799;SDS011;63326;45.088;7.658;2024-01-27T02:50:22;33.38;;;16.52;;
74799;SDS011;63326;45.088;7.658;2024-01-27T02:52:48;35.33;;;17.45;;
74799;SDS011;63326;45.088;7.658;2024-01-27T02:55:16;28.20;;;11.18;;
74799;SDS011;63326;45.088;7.658;2024-01-27T02:57:45;29.77;;;10.20;;
74799;SDS011;63326;45.088;7.658;2024-01-27T03:00:16;31.52;;;14.95;;
74799;SDS011;63326;45.088;7.658;2024-01-27T03:02:44;26.42;;;15.55;;
74799;SDS011;63326;45.088;7.658;2024-01-27T03:05:12;27.60;;;13.30;;
74799;SDS011;63326;45.088;7.658;2024-01-27T03:07:41;32.05;;;14.30;;
74799;SDS011;63326;45.088;7.658;2024-01-27T03:10:08;41.78;;;19.65;;
74799;SDS011;63326;45.088;7.658;2024-01-27T03:12:38;29.80;;;17.65;;
74799;SDS011;63326;45.088;7.658;2024-01-27T03:15:06;24.17;;;11.50;;
74799;SDS011;63326;45.088;7.658;2024-01-27T03:17:34;26.30;;;11.80;;
74799;SDS011;63326;45.088;7.658;2024-01-27T03:20:01;18.33;;;9.00;;
74799;SDS011;63326;45.088;7.658;2024-01-27T03:22:32;27.45;;;12.95;;
74799;SDS011;63326;45.088;7.658;2024-01-27T03:24:59;24.65;;;10.95;;
74799;SDS011;63326;45.088;7.658;2024-01-27T03:27:26;24.40;;;11.23;;
74799;SDS011;63326;45.088;7.658;2024-01-27T03:32:22;27.17;;;13.38;;
74799;SDS011;63326;45.088;7.658;2024-01-27T03:34:49;26.80;;;12.90;;
74799;SDS011;63326;45.088;7.658;2024-01-27T03:37:17;25.00;;;16.20;;
74799;SDS011;63326;45.088;7.658;2024-01-27T03:39:44;38.00;;;13.63;;
74799;SDS011;63326;45.088;7.658;2024-01-27T03:42:10;28.95;;;12.95;;
74799;SDS011;63326;45.088;7.658;2024-01-27T03:44:37;29.08;;;11.75;;
74799;SDS011;63326;45.088;7.658;2024-01-27T03:47:05;30.48;;;12.20;;
74799;SDS011;63326;45.088;7.658;2024-01-27T03:49:31;33.70;;;15.93;;
74799;SDS011;63326;45.088;7.658;2024-01-27T03:51:58;28.40;;;14.57;;
74799;SDS011;63326;45.088;7.658;2024-01-27T03:54:26;32.05;;;14.35;;
74799;SDS011;63326;45.088;7.658;2024-01-27T03:56:54;31.40;;;15.80;;
74799;SDS011;63326;45.088;7.658;2024-01-27T03:59:22;28.67;;;15.05;;
74799;SDS011;63326;45.088;7.658;2024-01-27T04:01:49;28.88;;;16.02;;
74799;SDS011;63326;45.088;7.658;2024-01-27T04:04:16;24.42;;;11.95;;
74799;SDS011;63326;45.088;7.658;2024-01-27T04:06:43;34.47;;;16.52;;
74799;SDS011;63326;45.088;7.658;2024-01-27T04:09:10;27.10;;;15.48;;
74799;SDS011;63326;45.088;7.658;2024-01-27T04:11:40;23.23;;;13.48;;
74799;SDS011;63326;45.088;7.658;2024-01-27T04:14:08;31.38;;;14.80;;
74799;SDS011;63326;45.088;7.658;2024-01-27T04:16:35;27.80;;;14.10;;
74799;SDS011;63326;45.088;7.658;2024-01-27T04:19:02;32.65;;;16.20;;
74799;SDS011;63326;45.088;7.658;2024-01-27T04:21:32;31.95;;;15.48;;
74799;SDS011;63326;45.088;7.658;2024-01-27T04:23:58;31.05;;;14.65;;
74799;SDS011;63326;45.088;7.658;2024-01-27T04:26:26;33.80;;;16.65;;
74799;SDS011;63326;45.088;7.658;2024-01-27T04:28:53;23.42;;;11.70;;
74799;SDS011;63326;45.088;7.658;2024-01-27T04:31:20;37.45;;;15.75;;
74799;SDS011;63326;45.088;7.658;2024-01-27T04:33:47;24.35;;;15.32;;
74799;SDS011;63326;45.088;7.658;2024-01-27T04:36:14;41.13;;;16.55;;
74799;SDS011;63326;45.088;7.658;2024-01-27T04:38:43;27.73;;;14.38;;
74799;SDS011;63326;45.088;7.658;2024-01-27T04:41:11;24.23;;;15.30;;
74799;SDS011;63326;45.088;7.658;2024-01-27T04:43:38;25.20;;;14.15;;
74799;SDS011;63326;45.088;7.658;2024-01-27T04:46:05;25.13;;;14.63;;
74799;SDS011;63326;45.088;7.658;2024-01-27T04:48:32;30.73;;;14.95;;
74799;SDS011;63326;45.088;7.658;2024-01-27T04:51:00;22.92;;;9.88;;
74799;SDS011;63326;45.088;7.658;2024-01-27T04:53:26;25.92;;;13.73;;
74799;SDS011;63326;45.088;7.658;2024-01-27T04:55:55;20.60;;;12.13;;
74799;SDS011;63326;45.088;7.658;2024-01-27T04:58:21;21.30;;;10.95;;
74799;SDS011;63326;45.088;7.658;2024-01-27T05:00:51;20.38;;;12.50;;
74799;SDS011;63326;45.088;7.658;2024-01-27T05:03:18;20.75;;;11.68;;
74799;SDS011;63326;45.088;7.658;2024-01-27T05:05:46;20.92;;;11.48;;
74799;SDS011;63326;45.088;7.658;2024-01-27T05:08:13;27.55;;;10.85;;
74799;SDS011;63326;45.088;7.658;2024-01-27T05:10:42;19.20;;;12.57;;
74799;SDS011;63326;45.088;7.658;2024-01-27T05:13:13;20.95;;;12.23;;
74799;SDS011;63326;45.088;7.658;2024-01-27T05:15:40;18.30;;;11.43;;
74799;SDS011;63326;45.088;7.658;2024-01-27T05:18:07;14.77;;;9.02;;
74799;SDS011;63326;45.088;7.658;2024-01-27T05:20:38;21.08;;;7.47;;
74799;SDS011;63326;45.088;7.658;2024-01-27T05:23:05;25.23;;;14.25;;
74799;SDS011;63326;45.088;7.658;2024-01-27T05:25:32;24.80;;;13.43;;
74799;SDS011;63326;45.088;7.658;2024-01-27T05:28:00;15.50;;;9.70;;
74799;SDS011;63326;45.088;7.658;2024-01-27T05:30:28;19.85;;;8.48;;
74799;SDS011;63326;45.088;7.658;2024-01-27T05:32:55;23.55;;;13.27;;
74799;SDS011;63326;45.088;7.658;2024-01-27T05:35:22;17.35;;;7.43;;
74799;SDS011;63326;45.088;7.658;2024-01-27T05:37:49;17.63;;;8.60;;
74799;SDS011;63326;45.088;7.658;2024-01-27T05:40:20;21.00;;;12.63;;
74799;SDS011;63326;45.088;7.658;2024-01-27T05:42:47;17.98;;;10.18;;
74799;SDS011;63326;45.088;7.658;2024-01-27T05:45:16;17.85;;;9.93;;
74799;SDS011;63326;45.088;7.658;2024-01-27T05:47:44;15.05;;;7.82;;
74799;SDS011;63326;45.088;7.658;2024-01-27T05:50:11;23.58;;;13.15;;
74799;SDS011;63326;45.088;7.658;2024-01-27T05:52:38;21.85;;;10.85;;
74799;SDS011;63326;45.088;7.658;2024-01-27T05:55:08;20.77;;;10.20;;
74799;SDS011;63326;45.088;7.658;2024-01-27T05:57:38;20.48;;;9.90;;
74799;SDS011;63326;45.088;7.658;2024-01-27T06:00:05;21.38;;;13.65;;
74799;SDS011;63326;45.088;7.658;2024-01-27T06:02:33;20.92;;;12.85;;
74799;SDS011;63326;45.088;7.658;2024-01-27T06:05:06;31.95;;;11.98;;
74799;SDS011;63326;45.088;7.658;2024-01-27T06:07:37;23.85;;;12.02;;
74799;SDS011;63326;45.088;7.658;2024-01-27T06:10:08;17.27;;;11.95;;
74799;SDS011;63326;45.088;7.658;2024-01-27T06:12:38;24.88;;;11.15;;
74799;SDS011;63326;45.088;7.658;2024-01-27T06:15:08;18.20;;;10.48;;
74799;SDS011;63326;45.088;7.658;2024-01-27T06:17:40;18.33;;;11.30;;
74799;SDS011;63326;45.088;7.658;2024-01-27T06:20:08;19.35;;;12.10;;
74799;SDS011;63326;45.088;7.658;2024-01-27T06:22:36;21.67;;;9.00;;
74799;SDS011;63326;45.088;7.658;2024-01-27T06:25:03;24.13;;;10.45;;
74799;SDS011;63326;45.088;7.658;2024-01-27T06:27:30;23.15;;;12.80;;
74799;SDS011;63326;45.088;7.658;2024-01-27T06:32:25;15.35;;;11.30;;
74799;SDS011;63326;45.088;7.658;2024-01-27T06:34:54;20.23;;;13.32;;
74799;SDS011;63326;45.088;7.658;2024-01-27T06:37:20;24.60;;;14.90;;
74799;SDS011;63326;45.088;7.658;2024-01-27T06:39:49;20.60;;;13.18;;
74799;SDS011;63326;45.088;7.658;2024-01-27T06:42:16;19.80;;;10.93;;
74799;SDS011;63326;45.088;7.658;2024-01-27T06:44:44;20.90;;;11.23;;
74799;SDS011;63326;45.088;7.658;2024-01-27T06:47:14;22.02;;;11.48;;
74799;SDS011;63326;45.088;7.658;2024-01-27T06:49:43;18.58;;;10.77;;
74799;SDS011;63326;45.088;7.658;2024-01-27T06:52:13;21.13;;;10.38;;
74799;SDS011;63326;45.088;7.658;2024-01-27T06:54:40;18.35;;;14.18;;
74799;SDS011;63326;45.088;7.658;2024-01-27T06:57:17;19.20;;;10.70;;
74799;SDS011;63326;45.088;7.658;2024-01-27T06:59:51;22.05;;;14.38;;
74799;SDS011;63326;45.088;7.658;2024-01-27T07:02:23;20.83;;;13.50;;
74799;SDS011;63326;45.088;7.658;2024-01-27T07:04:50;17.45;;;13.02;;
74799;SDS011;63326;45.088;7.658;2024-01-27T07:07:18;22.90;;;13.52;;
74799;SDS011;63326;45.088;7.658;2024-01-27T07:09:51;21.27;;;15.02;;
74799;SDS011;63326;45.088;7.658;2024-01-27T07:12:18;23.33;;;12.45;;
74799;SDS011;63326;45.088;7.658;2024-01-27T07:17:23;16.95;;;8.88;;
74799;SDS011;63326;45.088;7.658;2024-01-27T07:19:50;23.75;;;12.52;;
74799;SDS011;63326;45.088;7.658;2024-01-27T07:22:26;17.98;;;10.98;;
74799;SDS011;63326;45.088;7.658;2024-01-27T07:24:53;20.73;;;14.38;;
74799;SDS011;63326;45.088;7.658;2024-01-27T07:27:24;21.45;;;12.88;;
74799;SDS011;63326;45.088;7.658;2024-01-27T07:29:53;19.80;;;13.40;;
74799;SDS011;63326;45.088;7.658;2024-01-27T07:32:20;25.17;;;13.35;;
74799;SDS011;63326;45.088;7.658;2024-01-27T07:34:47;25.08;;;12.93;;
74799;SDS011;63326;45.088;7.658;2024-01-27T07:37:14;28.05;;;15.80;;
74799;SDS011;63326;45.088;7.658;2024-01-27T07:39:42;21.17;;;14.13;;
74799;SDS011;63326;45.088;7.658;2024-01-27T07:42:10;33.05;;;15.60;;
74799;SDS011;63326;45.088;7.658;2024-01-27T07:44:39;33.50;;;17.58;;
74799;SDS011;63326;45.088;7.658;2024-01-27T07:47:06;33.47;;;19.25;;
74799;SDS011;63326;45.088;7.658;2024-01-27T07:49:38;34.05;;;16.63;;
74799;SDS011;63326;45.088;7.658;2024-01-27T07:52:05;43.75;;;22.30;;
74799;SDS011;63326;45.088;7.658;2024-01-27T07:54:36;48.50;;;24.15;;
74799;SDS011;63326;45.088;7.658;2024-01-27T07:57:09;49.40;;;24.42;;
74799;SDS011;63326;45.088;7.658;2024-01-27T07:59:36;42.15;;;26.30;;
74799;SDS011;63326;45.088;7.658;2024-01-27T08:04:35;52.83;;;23.20;;
74799;SDS011;63326;45.088;7.658;2024-01-27T08:07:03;45.00;;;27.67;;
74799;SDS011;63326;45.088;7.658;2024-01-27T08:09:38;60.53;;;31.92;;
74799;SDS011;63326;45.088;7.658;2024-01-27T08:12:09;57.13;;;31.52;;
74799;SDS011;63326;45.088;7.658;2024-01-27T08:14:37;78.20;;;40.85;;
74799;SDS011;63326;45.088;7.658;2024-01-27T08:17:07;79.28;;;35.65;;
74799;SDS011;63326;45.088;7.658;2024-01-27T08:19:35;76.05;;;37.35;;
74799;SDS011;63326;45.088;7.658;2024-01-27T08:22:02;67.00;;;31.58;;
74799;SDS011;63326;45.088;7.658;2024-01-27T08:24:36;50.90;;;26.48;;
74799;SDS011;63326;45.088;7.658;2024-01-27T08:27:07;39.65;;;23.13;;
74799;SDS011;63326;45.088;7.658;2024-01-27T08:29:35;43.92;;;20.17;;
74799;SDS011;63326;45.088;7.658;2024-01-27T08:32:02;38.83;;;23.08;;
74799;SDS011;63326;45.088;7.658;2024-01-27T08:34:29;34.85;;;21.55;;
74799;SDS011;63326;45.088;7.658;2024-01-27T08:37:01;32.22;;;20.70;;
74799;SDS011;63326;45.088;7.658;2024-01-27T08:39:28;36.30;;;20.70;;
74799;SDS011;63326;45.088;7.658;2024-01-27T08:42:01;39.17;;;21.40;;
74799;SDS011;63326;45.088;7.658;2024-01-27T08:44:30;41.60;;;20.58;;
74799;SDS011;63326;45.088;7.658;2024-01-27T08:46:57;40.28;;;22.52;;
74799;SDS011;63326;45.088;7.658;2024-01-27T08:49:28;35.53;;;23.67;;
74799;SDS011;63326;45.088;7.658;2024-01-27T08:51:57;40.92;;;21.02;;
74799;SDS011;63326;45.088;7.658;2024-01-27T08:54:24;35.90;;;20.63;;
74799;SDS011;63326;45.088;7.658;2024-01-27T08:56:54;37.70;;;20.98;;
74799;SDS011;63326;45.088;7.658;2024-01-27T08:59:21;39.72;;;23.92;;
74799;SDS011;63326;45.088;7.658;2024-01-27T09:01:53;39.15;;;22.17;;
74799;SDS011;63326;45.088;7.658;2024-01-27T09:04:23;40.67;;;21.65;;
74799;SDS011;63326;45.088;7.658;2024-01-27T09:06:51;40.60;;;24.35;;
74799;SDS011;63326;45.088;7.658;2024-01-27T09:09:18;40.38;;;21.33;;
74799;SDS011;63326;45.088;7.658;2024-01-27T09:11:47;44.65;;;22.88;;
74799;SDS011;63326;45.088;7.658;2024-01-27T09:14:16;43.13;;;25.52;;
74799;SDS011;63326;45.088;7.658;2024-01-27T09:16:44;35.35;;;25.42;;
74799;SDS011;63326;45.088;7.658;2024-01-27T09:19:12;38.78;;;22.58;;
74799;SDS011;63326;45.088;7.658;2024-01-27T09:21:44;38.55;;;25.00;;
74799;SDS011;63326;45.088;7.658;2024-01-27T09:24:12;45.33;;;26.42;;
74799;SDS011;63326;45.088;7.658;2024-01-27T09:27:04;41.40;;;23.27;;
74799;SDS011;63326;45.088;7.658;2024-01-27T09:29:31;35.90;;;22.23;;
74799;SDS011;63326;45.088;7.658;2024-01-27T09:32:01;42.20;;;22.58;;
74799;SDS011;63326;45.088;7.658;2024-01-27T09:34:32;34.55;;;23.27;;
74799;SDS011;63326;45.088;7.658;2024-01-27T09:37:00;36.17;;;21.20;;
74799;SDS011;63326;45.088;7.658;2024-01-27T09:39:28;37.00;;;22.85;;
74799;SDS011;63326;45.088;7.658;2024-01-27T09:41:55;38.58;;;23.67;;
74799;SDS011;63326;45.088;7.658;2024-01-27T09:44:27;35.38;;;23.23;;
74799;SDS011;63326;45.088;7.658;2024-01-27T09:46:55;37.13;;;23.83;;
74799;SDS011;63326;45.088;7.658;2024-01-27T09:49:25;36.67;;;24.48;;
74799;SDS011;63326;45.088;7.658;2024-01-27T09:51:53;40.05;;;24.70;;
74799;SDS011;63326;45.088;7.658;2024-01-27T09:54:23;39.40;;;21.63;;
74799;SDS011;63326;45.088;7.658;2024-01-27T09:56:51;37.92;;;23.40;;
74799;SDS011;63326;45.088;7.658;2024-01-27T09:59:19;37.17;;;24.58;;
74799;SDS011;63326;45.088;7.658;2024-01-27T10:01:50;39.35;;;24.48;;
74799;SDS011;63326;45.088;7.658;2024-01-27T10:04:19;36.20;;;22.58;;
74799;SDS011;63326;45.088;7.658;2024-01-27T10:06:48;36.72;;;23.50;;
74799;SDS011;63326;45.088;7.658;2024-01-27T10:09:19;35.53;;;21.73;;
74799;SDS011;63326;45.088;7.658;2024-01-27T10:11:47;33.33;;;21.33;;
74799;SDS011;63326;45.088;7.658;2024-01-27T10:14:15;36.58;;;21.40;;
74799;SDS011;63326;45.088;7.658;2024-01-27T10:16:46;32.30;;;23.52;;
74799;SDS011;63326;45.088;7.658;2024-01-27T10:19:17;40.35;;;23.42;;
74799;SDS011;63326;45.088;7.658;2024-01-27T10:21:45;36.95;;;23.83;;
74799;SDS011;63326;45.088;7.658;2024-01-27T10:24:14;36.95;;;23.85;;
74799;SDS011;63326;45.088;7.658;2024-01-27T10:26:41;39.67;;;22.17;;
74799;SDS011;63326;45.088;7.658;2024-01-27T10:29:12;37.85;;;22.45;;
74799;SDS011;63326;45.088;7.658;2024-01-27T10:31:38;38.75;;;24.98;;
74799;SDS011;63326;45.088;7.658;2024-01-27T10:34:06;40.10;;;23.50;;
74799;SDS011;63326;45.088;7.658;2024-01-27T10:36:47;34.75;;;23.45;;
74799;SDS011;63326;45.088;7.658;2024-01-27T10:41:44;34.38;;;22.67;;
74799;SDS011;63326;45.088;7.658;2024-01-27T10:44:15;38.05;;;21.33;;
74799;SDS011;63326;45.088;7.658;2024-01-27T10:46:47;40.45;;;23.00;;
74799;SDS011;63326;45.088;7.658;2024-01-27T10:49:18;37.08;;;21.77;;
74799;SDS011;63326;45.088;7.658;2024-01-27T10:51:55;36.22;;;23.30;;
74799;SDS011;63326;45.088;7.658;2024-01-27T10:54:25;33.20;;;21.27;;
74799;SDS011;63326;45.088;7.658;2024-01-27T10:56:56;37.15;;;21.83;;
74799;SDS011;63326;45.088;7.658;2024-01-27T10:59:28;38.28;;;21.33;;
74799;SDS011;63326;45.088;7.658;2024-01-27T11:01:59;34.13;;;24.10;;
74799;SDS011;63326;45.088;7.658;2024-01-27T11:04:28;32.47;;;18.73;;
74799;SDS011;63326;45.088;7.658;2024-01-27T11:06:55;32.53;;;19.33;;
74799;SDS011;63326;45.088;7.658;2024-01-27T11:09:24;36.50;;;22.50;;
74799;SDS011;63326;45.088;7.658;2024-01-27T11:11:51;34.28;;;22.75;;
74799;SDS011;63326;45.088;7.658;2024-01-27T11:14:18;37.45;;;22.15;;
74799;SDS011;63326;45.088;7.658;2024-01-27T11:16:46;32.55;;;21.38;;
74799;SDS011;63326;45.088;7.658;2024-01-27T11:19:17;32.70;;;19.00;;
74799;SDS011;63326;45.088;7.658;2024-01-27T11:21:45;35.60;;;18.83;;
74799;SDS011;63326;45.088;7.658;2024-01-27T11:24:15;36.83;;;20.75;;
74799;SDS011;63326;45.088;7.658;2024-01-27T11:26:45;36.97;;;19.33;;
74799;SDS011;63326;45.088;7.658;2024-01-27T11:29:13;35.72;;;21.52;;
74799;SDS011;63326;45.088;7.658;2024-01-27T11:31:48;34.53;;;21.10;;
74799;SDS011;63326;45.088;7.658;2024-01-27T11:34:17;32.08;;;20.92;;
74799;SDS011;63326;45.088;7.658;2024-01-27T11:36:47;35.63;;;22.63;;
74799;SDS011;63326;45.088;7.658;2024-01-27T11:39:27;40.15;;;21.70;;
74799;SDS011;63326;45.088;7.658;2024-01-27T11:42:05;36.78;;;19.77;;
74799;SDS011;63326;45.088;7.658;2024-01-27T11:44:41;34.22;;;19.23;;
74799;SDS011;63326;45.088;7.658;2024-01-27T11:47:16;33.38;;;18.63;;
74799;SDS011;63326;45.088;7.658;2024-01-27T11:49:50;33.90;;;21.65;;
74799;SDS011;63326;45.088;7.658;2024-01-27T11:52:21;37.53;;;22.52;;
74799;SDS011;63326;45.088;7.658;2024-01-27T11:57:22;38.38;;;22.90;;
74799;SDS011;63326;45.088;7.658;2024-01-27T11:59:51;28.00;;;18.70;;
74799;SDS011;63326;45.088;7.658;2024-01-27T12:02:20;32.35;;;19.38;;
74799;SDS011;63326;45.088;7.658;2024-01-27T12:04:47;29.98;;;19.02;;
74799;SDS011;63326;45.088;7.658;2024-01-27T12:07:14;37.00;;;19.55;;
74799;SDS011;63326;45.088;7.658;2024-01-27T12:09:49;34.17;;;20.85;;
74799;SDS011;63326;45.088;7.658;2024-01-27T12:12:17;34.22;;;19.30;;
74799;SDS011;63326;45.088;7.658;2024-01-27T12:14:47;35.05;;;21.67;;
74799;SDS011;63326;45.088;7.658;2024-01-27T12:17:19;35.42;;;20.15;;
74799;SDS011;63326;45.088;7.658;2024-01-27T12:19:49;37.08;;;19.10;;
74799;SDS011;63326;45.088;7.658;2024-01-27T12:22:25;29.95;;;17.30;;
74799;SDS011;63326;45.088;7.658;2024-01-27T12:25:07;26.52;;;16.98;;
74799;SDS011;63326;45.088;7.658;2024-01-27T12:27:38;34.55;;;19.60;;
74799;SDS011;63326;45.088;7.658;2024-01-27T12:30:09;38.78;;;20.27;;
74799;SDS011;63326;45.088;7.658;2024-01-27T12:32:40;36.63;;;19.65;;
74799;SDS011;63326;45.088;7.658;2024-01-27T12:35:09;30.45;;;19.48;;
74799;SDS011;63326;45.088;7.658;2024-01-27T12:37:40;28.38;;;17.08;;
74799;SDS011;63326;45.088;7.658;2024-01-27T12:40:19;30.63;;;18.33;;
74799;SDS011;63326;45.088;7.658;2024-01-27T12:42:50;29.67;;;18.00;;
74799;SDS011;63326;45.088;7.658;2024-01-27T12:45:17;35.65;;;20.55;;
74799;SDS011;63326;45.088;7.658;2024-01-27T12:47:58;27.30;;;16.33;;
74799;SDS011;63326;45.088;7.658;2024-01-27T12:50:27;31.50;;;17.40;;
74799;SDS011;63326;45.088;7.658;2024-01-27T12:52:59;27.95;;;17.65;;
74799;SDS011;63326;45.088;7.658;2024-01-27T12:55:26;29.23;;;16.25;;
74799;SDS011;63326;45.088;7.658;2024-01-27T12:57:52;25.35;;;14.45;;
74799;SDS011;63326;45.088;7.658;2024-01-27T13:00:20;24.08;;;14.60;;
74799;SDS011;63326;45.088;7.658;2024-01-27T13:02:50;21.77;;;14.90;;
74799;SDS011;63326;45.088;7.658;2024-01-27T13:05:18;26.73;;;15.77;;
74799;SDS011;63326;45.088;7.658;2024-01-27T13:07:46;25.83;;;15.43;;
74799;SDS011;63326;45.088;7.658;2024-01-27T13:10:16;22.48;;;14.88;;
74799;SDS011;63326;45.088;7.658;2024-01-27T13:12:43;20.15;;;11.35;;
74799;SDS011;63326;45.088;7.658;2024-01-27T13:15:12;22.45;;;13.65;;
74799;SDS011;63326;45.088;7.658;2024-01-27T13:17:41;27.42;;;14.25;;
74799;SDS011;63326;45.088;7.658;2024-01-27T13:20:10;27.40;;;14.95;;
74799;SDS011;63326;45.088;7.658;2024-01-27T13:22:37;21.60;;;12.80;;
74799;SDS011;63326;45.088;7.658;2024-01-27T13:25:03;23.65;;;14.73;;
74799;SDS011;63326;45.088;7.658;2024-01-27T13:27:34;21.50;;;14.13;;
74799;SDS011;63326;45.088;7.658;2024-01-27T13:30:02;24.30;;;14.68;;
74799;SDS011;63326;45.088;7.658;2024-01-27T13:34:56;22.13;;;11.93;;
74799;SDS011;63326;45.088;7.658;2024-01-27T13:37:26;16.02;;;9.88;;
74799;SDS011;63326;45.088;7.658;2024-01-27T13:39:57;15.45;;;11.05;;
74799;SDS011;63326;45.088;7.658;2024-01-27T13:42:26;18.75;;;10.50;;
74799;SDS011;63326;45.088;7.658;2024-01-27T13:44:53;16.38;;;9.02;;
74799;SDS011;63326;45.088;7.658;2024-01-27T13:47:26;18.70;;;8.20;;
74799;SDS011;63326;45.088;7.658;2024-01-27T13:49:53;14.43;;;7.90;;
74799;SDS011;63326;45.088;7.658;2024-01-27T13:52:24;15.27;;;9.23;;
74799;SDS011;63326;45.088;7.658;2024-01-27T13:54:53;13.02;;;6.35;;
74799;SDS011;63326;45.088;7.658;2024-01-27T13:57:21;10.90;;;6.88;;
74799;SDS011;63326;45.088;7.658;2024-01-27T13:59:48;11.02;;;6.20;;
74799;SDS011;63326;45.088;7.658;2024-01-27T14:02:18;11.57;;;6.22;;
74799;SDS011;63326;45.088;7.658;2024-01-27T14:04:49;11.65;;;6.35;;
74799;SDS011;63326;45.088;7.658;2024-01-27T14:07:16;12.25;;;6.32;;
74799;SDS011;63326;45.088;7.658;2024-01-27T14:09:43;11.18;;;6.00;;
74799;SDS011;63326;45.088;7.658;2024-01-27T14:12:11;11.90;;;6.38;;
74799;SDS011;63326;45.088;7.658;2024-01-27T14:14:37;10.98;;;5.32;;
74799;SDS011;63326;45.088;7.658;2024-01-27T14:17:07;10.32;;;5.97;;
74799;SDS011;63326;45.088;7.658;2024-01-27T14:19:38;10.77;;;6.53;;
74799;SDS011;63326;45.088;7.658;2024-01-27T14:22:07;9.50;;;5.18;;
74799;SDS011;63326;45.088;7.658;2024-01-27T14:24:35;9.80;;;5.78;;
74799;SDS011;63326;45.088;7.658;2024-01-27T14:27:07;10.02;;;5.75;;
74799;SDS011;63326;45.088;7.658;2024-01-27T14:29:34;8.60;;;5.18;;
74799;SDS011;63326;45.088;7.658;2024-01-27T14:32:03;8.57;;;5.15;;
74799;SDS011;63326;45.088;7.658;2024-01-27T14:34:30;8.13;;;4.18;;
74799;SDS011;63326;45.088;7.658;2024-01-27T14:36:57;10.80;;;5.03;;
74799;SDS011;63326;45.088;7.658;2024-01-27T14:39:26;7.10;;;4.38;;
74799;SDS011;63326;45.088;7.658;2024-01-27T14:41:53;8.00;;;3.97;;
74799;SDS011;63326;45.088;7.658;2024-01-27T14:44:24;9.00;;;5.57;;
74799;SDS011;63326;45.088;7.658;2024-01-27T14:46:53;7.80;;;4.60;;
74799;SDS011;63326;45.088;7.658;2024-01-27T14:49:23;8.32;;;5.03;;
74799;SDS011;63326;45.088;7.658;2024-01-27T14:51:51;9.38;;;5.45;;